Time;durP1;ratioP1;P1;durP2;ratioP2;P2;SDS_P1;SDS_P2;PMS_P1;PMS_P2;Temp;Humidity;BMP_temperature;BMP_pressure;BME280_temperature;BME280_humidity;BME280_pressure;Samples;Min_cycle;Max_cycle;Signal;HPM_P1;HPM_P2
2021/12/24 00:00:13;;;;;;;15.15;7.63;;;;;;;;;;5060730;28;20364;-73
2021/12/24 00:02:40;;;;;;;11.45;6.05;;;;;;;;;;5060948;28;20315;-73
2021/12/24 00:05:09;;;;;;;10.93;6.53;;;;;;;;;;5044173;28;20035;-73
2021/12/24 00:07:37;;;;;;;11.60;7.28;;;;;;;;;;5044144;28;20070;-74
2021/12/24 00:10:10;;;;;;;9.13;5.80;;;;;;;;;;5044142;28;20098;-74
2021/12/24 00:12:42;;;;;;;9.63;5.30;;;;;;;;;;5044043;28;20343;-74
2021/12/24 00:18:17;;;;;;;15.98;6.70;;;;;;;;;;5061498;28;20039;-73
2021/12/24 00:37:19;;;;;;;16.40;9.13;;;;;;;;;;5061312;28;20024;-75
2021/12/24 00:40:00;;;;;;;18.45;11.60;;;;;;;;;;5043335;28;20033;-73
2021/12/24 00:42:27;;;;;;;;;;;;;;;;;;5044448;28;20020;-73
2021/12/24 00:44:54;;;;;;;15.05;8.95;;;;;;;;;;5078345;28;19943;-74
2021/12/24 00:47:36;;;;;;;14.95;9.88;;;;;;;;;;5044181;28;20074;-73
2021/12/24 00:50:24;;;;;;;13.32;7.68;;;;;;;;;;5044838;28;20051;-74
2021/12/24 00:52:57;;;;;;;18.45;8.18;;;;;;;;;;5043364;28;20338;-73
2021/12/24 00:55:27;;;;;;;16.58;8.55;;;;;;;;;;5043011;28;20039;-74
2021/12/24 00:58:01;;;;;;;14.70;8.35;;;;;;;;;;5043117;28;20342;-73
2021/12/24 01:00:28;;;;;;;15.18;8.70;;;;;;;;;;5043090;28;20040;-73
2021/12/24 01:02:55;;;;;;;15.10;7.45;;;;;;;;;;5077374;28;20453;-73
2021/12/24 01:05:24;;;;;;;11.15;6.57;;;;;;;;;;5042234;28;20025;-73
2021/12/24 01:07:53;;;;;;;10.20;6.95;;;;;;;;;;5043538;28;20024;-74
2021/12/24 01:10:22;;;;;;;9.90;5.28;;;;;;;;;;5042234;28;20123;-74
2021/12/24 01:12:54;;;;;;;9.48;4.65;;;;;;;;;;5067072;22;20138;-73
2021/12/24 01:15:22;;;;;;;6.45;3.92;;;;;;;;;;5077241;28;20024;-74
2021/12/24 01:20:26;;;;;;;17.15;8.15;;;;;;;;;;5076492;28;20505;-74
2021/12/24 01:25:47;;;;;;;11.13;6.53;;;;;;;;;;5077830;28;20422;-73
2021/12/24 01:44:21;;;;;;;10.98;5.15;;;;;;;;;;5063350;28;20391;-73
2021/12/24 01:46:47;;;;;;;10.90;5.95;;;;;;;;;;5062322;28;20411;-73
2021/12/24 01:52:31;;;;;;;12.05;6.88;;;;;;;;;;5078102;28;20063;-73
2021/12/24 01:55:03;;;;;;;20.00;7.70;;;;;;;;;;5043843;28;20057;-73
2021/12/24 01:57:43;;;;;;;16.40;9.10;;;;;;;;;;5045287;28;20028;-73
2021/12/24 02:00:31;;;;;;;27.98;12.80;;;;;;;;;;5045111;28;20493;-73
2021/12/24 02:03:20;;;;;;;19.58;11.88;;;;;;;;;;5061320;28;20012;-73
2021/12/24 02:06:05;;;;;;;19.05;12.05;;;;;;;;;;5043463;28;20437;-73
2021/12/24 02:08:38;;;;;;;13.05;8.43;;;;;;;;;;5078951;28;20016;-74
2021/12/24 02:11:14;;;;;;;10.38;7.38;;;;;;;;;;5059904;28;20051;-73
2021/12/24 02:13:49;;;;;;;9.57;6.10;;;;;;;;;;5044306;28;20318;-73
2021/12/24 02:30:40;;;;;;;15.38;9.13;;;;;;;;;;5077171;28;20036;-72
2021/12/24 02:33:20;;;;;;;17.95;11.80;;;;;;;;;;5061582;28;20021;-72
2021/12/24 02:35:59;;;;;;;15.95;9.40;;;;;;;;;;5044943;28;20020;-73
2021/12/24 02:38:33;;;;;;;13.43;8.90;;;;;;;;;;5044538;28;20019;-73
2021/12/24 02:41:10;;;;;;;17.85;9.38;;;;;;;;;;5042874;28;20033;-73
2021/12/24 02:43:42;;;;;;;15.38;8.70;;;;;;;;;;5060644;28;20017;-73
2021/12/24 02:46:13;;;;;;;15.70;10.13;;;;;;;;;;5059927;28;20418;-73
2021/12/24 02:54:09;;;;;;;21.08;12.63;;;;;;;;;;5079521;28;20027;-73
2021/12/24 02:56:37;;;;;;;17.67;11.05;;;;;;;;;;5041931;28;20078;-73
2021/12/24 02:59:11;;;;;;;26.20;14.70;;;;;;;;;;5077380;28;20024;-73
2021/12/24 03:01:39;;;;;;;24.90;15.63;;;;;;;;;;5058877;28;20415;-73
2021/12/24 03:04:06;;;;;;;24.80;14.50;;;;;;;;;;5058452;28;20071;-73
2021/12/24 03:06:53;;;;;;;22.50;12.82;;;;;;;;;;5042890;28;20401;-73
2021/12/24 03:09:33;;;;;;;25.33;13.95;;;;;;;;;;5042127;28;20310;-72
2021/12/24 03:12:11;;;;;;;25.80;14.10;;;;;;;;;;5040519;28;20025;-73
2021/12/24 03:14:45;;;;;;;23.00;13.57;;;;;;;;;;5041497;28;20112;-73
2021/12/24 03:17:16;;;;;;;25.33;13.65;;;;;;;;;;5041473;28;20023;-73
2021/12/24 03:19:42;;;;;;;25.65;14.63;;;;;;;;;;5057699;28;20039;-73
2021/12/24 03:22:48;;;;;;;17.80;10.75;;;;;;;;;;5077328;28;20515;-73
2021/12/24 03:25:01;;;;;;;20.08;11.95;;;;;;;;;;5073624;28;20051;-74
2021/12/24 03:27:28;;;;;;;17.73;10.38;;;;;;;;;;5059029;28;20347;-73
2021/12/24 03:29:57;;;;;;;15.98;9.30;;;;;;;;;;5060337;28;20016;-73
2021/12/24 03:32:28;;;;;;;13.30;8.15;;;;;;;;;;5059917;28;20016;-73
2021/12/24 03:34:56;;;;;;;12.73;8.48;;;;;;;;;;5058526;28;20017;-73
2021/12/24 03:37:22;;;;;;;11.27;8.02;;;;;;;;;;5075753;28;20062;-73
2021/12/24 03:39:50;;;;;;;16.23;8.85;;;;;;;;;;5059514;28;20032;-73
2021/12/24 03:42:16;;;;;;;18.38;7.93;;;;;;;;;;5058821;28;20395;-73
2021/12/24 03:44:46;;;;;;;14.57;8.60;;;;;;;;;;5041338;28;20374;-73
2021/12/24 03:47:18;;;;;;;14.95;9.73;;;;;;;;;;5058674;28;20020;-73
2021/12/24 03:52:38;;;;;;;15.20;8.90;;;;;;;;;;5057047;28;20432;-72
2021/12/24 03:55:05;;;;;;;15.52;8.93;;;;;;;;;;5058170;28;20055;-73
2021/12/24 03:57:36;;;;;;;16.75;8.75;;;;;;;;;;5041884;28;20032;-74
2021/12/24 04:00:08;;;;;;;21.30;9.43;;;;;;;;;;5041119;28;20098;-73
2021/12/24 04:02:36;;;;;;;14.40;8.55;;;;;;;;;;5058016;28;20027;-73
2021/12/24 04:05:04;;;;;;;14.38;9.75;;;;;;;;;;5041419;28;20032;-73
2021/12/24 04:07:32;;;;;;;19.37;10.57;;;;;;;;;;5058003;28;20024;-73
2021/12/24 04:10:03;;;;;;;19.38;10.63;;;;;;;;;;5041611;28;20261;-73
2021/12/24 04:12:31;;;;;;;20.58;11.77;;;;;;;;;;5057964;28;20036;-73
2021/12/24 04:15:00;;;;;;;17.15;10.98;;;;;;;;;;5041239;28;20116;-72
2021/12/24 04:17:31;;;;;;;19.45;12.20;;;;;;;;;;5057375;28;20395;-72
2021/12/24 04:25:26;;;;;;;26.00;16.42;;;;;;;;;;5073981;28;20012;-72
2021/12/24 04:27:58;;;;;;;31.80;15.52;;;;;;;;;;5055614;28;20083;-72
2021/12/24 04:30:33;;;;;;;25.08;13.27;;;;;;;;;;5040681;28;20037;-72
2021/12/24 04:33:11;;;;;;;28.27;12.93;;;;;;;;;;5074115;28;20029;-73
2021/12/24 04:35:58;;;;;;;21.88;11.93;;;;;;;;;;5074369;28;20013;-73
2021/12/24 04:38:44;;;;;;;27.65;11.05;;;;;;;;;;5040388;28;20536;-73
2021/12/24 05:03:28;;;;;;;44.63;28.48;;;;;;;;;;5057062;28;20061;-74
2021/12/24 05:06:07;;;;;;;49.35;32.80;;;;;;;;;;5040007;28;20383;-75
2021/12/24 05:08:53;;;;;;;48.95;31.52;;;;;;;;;;5074972;28;20207;-73
2021/12/24 05:11:21;;;;;;;50.35;30.38;;;;;;;;;;5039790;28;20115;-74
2021/12/24 05:13:49;;;;;;;47.10;28.80;;;;;;;;;;5039573;28;20075;-73
2021/12/24 05:21:33;;;;;;;45.67;29.13;;;;;;;;;;5055732;28;20025;-73
2021/12/24 05:24:04;;;;;;;49.92;30.40;;;;;;;;;;5075661;28;20028;-73
2021/12/24 05:26:31;;;;;;;54.65;33.60;;;;;;;;;;5055627;28;20017;-72
2021/12/24 05:28:58;;;;;;;55.05;29.85;;;;;;;;;;5073858;28;20016;-73
2021/12/24 05:31:26;;;;;;;52.72;32.50;;;;;;;;;;5057243;28;20025;-73
2021/12/24 05:34:03;;;;;;;57.58;31.83;;;;;;;;;;5074899;28;20026;-73
2021/12/24 05:36:29;;;;;;;46.00;29.27;;;;;;;;;;5039856;28;20079;-74
2021/12/24 05:38:56;;;;;;;48.22;28.23;;;;;;;;;;5057005;28;20048;-74
2021/12/24 05:41:30;;;;;;;55.20;33.25;;;;;;;;;;5056702;28;20195;-73
2021/12/24 05:44:04;;;;;;;51.55;32.28;;;;;;;;;;5040680;28;20457;-73
2021/12/24 05:46:30;;;;;;;61.58;32.92;;;;;;;;;;5056360;28;20032;-74
2021/12/24 05:48:57;;;;;;;71.65;40.13;;;;;;;;;;5040437;28;20020;-74
2021/12/24 05:51:25;;;;;;;72.85;39.03;;;;;;;;;;5040446;28;20020;-74
2021/12/24 05:53:52;;;;;;;78.53;42.47;;;;;;;;;;5040895;28;20252;-73
2021/12/24 05:56:19;;;;;;;81.05;40.17;;;;;;;;;;5039841;28;20021;-73
2021/12/24 05:58:45;;;;;;;80.55;41.13;;;;;;;;;;5055945;28;20016;-73
2021/12/24 06:01:12;;;;;;;70.35;41.42;;;;;;;;;;5056039;28;20354;-74
2021/12/24 06:03:38;;;;;;;65.78;37.20;;;;;;;;;;5056586;28;20064;-75
2021/12/24 06:06:05;;;;;;;59.70;33.55;;;;;;;;;;5039054;28;20028;-72
2021/12/24 06:08:33;;;;;;;63.15;32.75;;;;;;;;;;5038757;28;20048;-73
2021/12/24 06:10:59;;;;;;;54.03;30.42;;;;;;;;;;5054529;28;20023;-74
2021/12/24 06:13:27;;;;;;;58.13;34.67;;;;;;;;;;5073252;28;20025;-72
2021/12/24 06:15:56;;;;;;;55.22;32.50;;;;;;;;;;5056241;28;20023;-73
2021/12/24 06:20:49;;;;;;;60.55;38.22;;;;;;;;;;5076495;28;20033;-73
2021/12/24 06:23:15;;;;;;;59.50;33.95;;;;;;;;;;5057762;28;20021;-74
2021/12/24 06:25:41;;;;;;;53.88;29.10;;;;;;;;;;5067293;22;20127;-72
2021/12/24 06:28:08;;;;;;;56.88;30.27;;;;;;;;;;5059003;28;20091;-71
2021/12/24 06:30:37;;;;;;;51.33;29.50;;;;;;;;;;5058191;28;20019;-73
2021/12/24 06:33:04;;;;;;;49.35;31.90;;;;;;;;;;5058128;28;20035;-73
2021/12/24 06:35:30;;;;;;;45.80;27.98;;;;;;;;;;5059434;28;20021;-72
2021/12/24 06:37:58;;;;;;;45.40;26.65;;;;;;;;;;5042755;28;20032;-73
2021/12/24 06:40:25;;;;;;;40.15;26.02;;;;;;;;;;5059059;28;20032;-74
2021/12/24 06:42:52;;;;;;;37.55;21.95;;;;;;;;;;5059304;28;20017;-73
2021/12/24 06:45:23;;;;;;;39.55;23.08;;;;;;;;;;5042224;28;20054;-74
2021/12/24 06:47:49;;;;;;;;;;;;;;;;;;5059278;28;20066;-74
2021/12/24 06:50:15;;;;;;;42.55;24.80;;;;;;;;;;5042267;28;19908;-72
2021/12/24 06:52:41;;;;;;;48.47;27.70;;;;;;;;;;5042834;28;20056;-75
2021/12/24 06:55:08;;;;;;;50.08;28.38;;;;;;;;;;5058063;28;20021;-75
2021/12/24 06:57:34;;;;;;;47.95;27.33;;;;;;;;;;5058462;28;20353;-73
2021/12/24 07:00:00;;;;;;;39.67;26.02;;;;;;;;;;5076129;28;20336;-74
2021/12/24 07:02:28;;;;;;;44.92;26.92;;;;;;;;;;5059237;28;20048;-73
2021/12/24 07:04:54;;;;;;;41.42;23.63;;;;;;;;;;5058411;28;20030;-73
2021/12/24 07:07:20;;;;;;;40.42;23.83;;;;;;;;;;5041599;28;20354;-74
2021/12/24 07:09:46;;;;;;;43.50;25.58;;;;;;;;;;5042316;28;20020;-73
2021/12/24 07:12:14;;;;;;;43.70;27.83;;;;;;;;;;5076366;28;20079;-74
2021/12/24 07:14:41;;;;;;;35.70;21.77;;;;;;;;;;5058015;28;20021;-72
2021/12/24 07:17:10;;;;;;;44.45;26.27;;;;;;;;;;5058643;28;20052;-73
2021/12/24 07:19:40;;;;;;;49.45;28.20;;;;;;;;;;5041275;28;20058;-73
2021/12/24 07:22:07;;;;;;;51.35;30.38;;;;;;;;;;5058294;28;20024;-73
2021/12/24 07:24:34;;;;;;;55.55;33.53;;;;;;;;;;5057183;28;20406;-72
2021/12/24 07:27:01;;;;;;;49.35;29.02;;;;;;;;;;5074922;28;20373;-73
2021/12/24 07:29:28;;;;;;;55.08;29.92;;;;;;;;;;5057682;28;20021;-72
2021/12/24 07:31:54;;;;;;;57.17;31.80;;;;;;;;;;5057291;28;20020;-74
2021/12/24 07:34:21;;;;;;;67.18;34.42;;;;;;;;;;5058214;28;20031;-73
2021/12/24 07:36:47;;;;;;;51.03;29.95;;;;;;;;;;5057605;28;20021;-73
2021/12/24 07:39:13;;;;;;;47.78;27.85;;;;;;;;;;5074658;28;20044;-73
2021/12/24 07:41:39;;;;;;;54.88;29.13;;;;;;;;;;5058032;28;20028;-73
2021/12/24 07:44:05;;;;;;;44.05;25.38;;;;;;;;;;5059194;28;20035;-73
2021/12/24 07:46:38;;;;;;;49.00;27.83;;;;;;;;;;5042339;28;20422;-73
2021/12/24 07:49:18;;;;;;;44.08;23.73;;;;;;;;;;5041330;28;20028;-72
2021/12/24 07:54:23;;;;;;;52.33;24.80;;;;;;;;;;5057826;28;20025;-74
2021/12/24 07:56:52;;;;;;;53.25;26.60;;;;;;;;;;5040779;28;20013;-73
2021/12/24 07:59:19;;;;;;;48.22;27.70;;;;;;;;;;5057084;28;20122;-72
2021/12/24 08:01:52;;;;;;;44.17;26.65;;;;;;;;;;5042238;28;20020;-74
2021/12/24 08:04:23;;;;;;;56.47;28.98;;;;;;;;;;5042321;28;20361;-72
2021/12/24 08:06:49;;;;;;;54.05;28.13;;;;;;;;;;5058968;28;20017;-72
2021/12/24 08:09:17;;;;;;;48.13;25.25;;;;;;;;;;5075784;28;20070;-73
2021/12/24 08:11:46;;;;;;;53.92;25.65;;;;;;;;;;5058505;28;20020;-73
2021/12/24 08:14:15;;;;;;;47.42;28.13;;;;;;;;;;5041854;28;20035;-73
2021/12/24 08:16:44;;;;;;;44.67;25.45;;;;;;;;;;5042521;28;20017;-73
2021/12/24 08:19:11;;;;;;;52.70;27.90;;;;;;;;;;5058388;28;20028;-72
2021/12/24 08:21:37;;;;;;;48.65;26.42;;;;;;;;;;5077169;28;20028;-72
2021/12/24 08:24:03;;;;;;;54.75;26.83;;;;;;;;;;5058506;28;20389;-73
2021/12/24 08:26:32;;;;;;;59.50;29.33;;;;;;;;;;5059717;28;20124;-73
2021/12/24 08:29:03;;;;;;;56.88;29.88;;;;;;;;;;5074082;28;20464;-72
2021/12/24 08:31:31;;;;;;;58.42;30.08;;;;;;;;;;5042366;28;20016;-73
2021/12/24 08:33:58;;;;;;;56.85;30.65;;;;;;;;;;5042114;28;20330;-72
2021/12/24 08:36:26;;;;;;;63.45;31.67;;;;;;;;;;5041798;28;20032;-73
2021/12/24 08:38:54;;;;;;;58.28;29.15;;;;;;;;;;5074874;28;20021;-73
2021/12/24 08:41:21;;;;;;;61.10;27.30;;;;;;;;;;5058440;28;20107;-73
2021/12/24 08:43:48;;;;;;;60.58;32.72;;;;;;;;;;5057120;28;20075;-73
2021/12/24 08:46:15;;;;;;;64.35;33.15;;;;;;;;;;5058079;28;20099;-72
2021/12/24 08:48:41;;;;;;;70.80;33.10;;;;;;;;;;5042132;28;20024;-73
2021/12/24 08:51:11;;;;;;;52.28;27.13;;;;;;;;;;5075001;28;20422;-73
2021/12/24 08:53:54;;;;;;;63.08;32.13;;;;;;;;;;5049344;28;20040;-73
2021/12/24 08:56:22;;;;;;;51.38;28.30;;;;;;;;;;5041840;28;20032;-72
2021/12/24 08:58:50;;;;;;;52.80;28.25;;;;;;;;;;5042109;28;20070;-72
2021/12/24 09:01:17;;;;;;;56.55;30.52;;;;;;;;;;5058418;28;20055;-72
2021/12/24 09:03:43;;;;;;;56.95;25.25;;;;;;;;;;5041678;28;20021;-73
2021/12/24 09:06:09;;;;;;;66.22;33.65;;;;;;;;;;5057651;28;20025;-73
2021/12/24 09:08:36;;;;;;;61.25;31.48;;;;;;;;;;5041029;28;20025;-72
2021/12/24 09:11:11;;;;;;;55.92;31.30;;;;;;;;;;5074828;28;20024;-72
2021/12/24 09:13:38;;;;;;;58.85;32.10;;;;;;;;;;5075241;28;20017;-73
2021/12/24 09:16:05;;;;;;;57.70;28.02;;;;;;;;;;5057310;28;20070;-73
2021/12/24 09:18:31;;;;;;;68.88;33.35;;;;;;;;;;5057351;28;20016;-72
2021/12/24 09:21:01;;;;;;;72.43;33.72;;;;;;;;;;5075855;28;20028;-71
2021/12/24 09:23:30;;;;;;;67.82;33.40;;;;;;;;;;5039695;28;20025;-72
2021/12/24 09:25:57;;;;;;;77.97;38.00;;;;;;;;;;5074960;28;20052;-72
2021/12/24 09:28:23;;;;;;;84.50;38.38;;;;;;;;;;5075463;28;20038;-72
2021/12/24 09:30:50;;;;;;;79.18;38.65;;;;;;;;;;5074860;28;20414;-72
2021/12/24 09:33:16;;;;;;;73.32;38.88;;;;;;;;;;5056482;28;20047;-72
2021/12/24 09:35:42;;;;;;;86.75;39.78;;;;;;;;;;5075015;28;20025;-72
2021/12/24 09:38:09;;;;;;;83.18;37.90;;;;;;;;;;5075218;28;20024;-72
2021/12/24 09:40:36;;;;;;;93.47;43.17;;;;;;;;;;5075036;28;20419;-72
2021/12/24 09:43:10;;;;;;;97.00;45.00;;;;;;;;;;5041748;28;20149;-72
2021/12/24 09:45:38;;;;;;;102.57;44.55;;;;;;;;;;5042035;28;20025;-73
2021/12/24 09:48:06;;;;;;;95.32;49.03;;;;;;;;;;5042188;28;20020;-73
2021/12/24 09:50:32;;;;;;;92.68;45.25;;;;;;;;;;5059607;28;20016;-73
2021/12/24 09:52:58;;;;;;;102.63;54.15;;;;;;;;;;5062365;28;20017;-73
2021/12/24 09:55:29;;;;;;;113.47;50.35;;;;;;;;;;5080594;28;20062;-74
2021/12/24 09:57:55;;;;;;;116.03;52.55;;;;;;;;;;5061745;28;20061;-73
2021/12/24 10:00:27;;;;;;;133.45;61.20;;;;;;;;;;5045721;28;20135;-73
2021/12/24 10:02:55;;;;;;;139.00;63.10;;;;;;;;;;5079960;28;20055;-73
2021/12/24 10:05:28;;;;;;;146.70;64.88;;;;;;;;;;5061879;28;20407;-72
2021/12/24 10:08:00;;;;;;;133.95;62.30;;;;;;;;;;5061995;28;20031;-72
2021/12/24 10:10:29;;;;;;;130.07;59.40;;;;;;;;;;5061824;28;20395;-72
2021/12/24 10:12:55;;;;;;;142.07;62.75;;;;;;;;;;5062335;28;20024;-72
2021/12/24 10:15:25;;;;;;;140.63;64.63;;;;;;;;;;5062136;28;20545;-73
2021/12/24 10:18:23;;;;;;;147.15;62.38;;;;;;;;;;5060583;28;20177;-72
2021/12/24 10:20:59;;;;;;;150.00;66.45;;;;;;;;;;5080566;28;20182;-73
2021/12/24 10:23:40;;;;;;;104.53;53.75;;;;;;;;;;5061987;28;20016;-72
2021/12/24 10:26:14;;;;;;;110.78;51.50;;;;;;;;;;5045442;28;20123;-73
2021/12/24 10:29:00;;;;;;;109.25;51.17;;;;;;;;;;5080440;28;20020;-72
2021/12/24 10:31:31;;;;;;;114.80;52.47;;;;;;;;;;5046310;28;20434;-73
2021/12/24 10:34:16;;;;;;;91.97;42.03;;;;;;;;;;5062286;28;20376;-72
2021/12/24 10:36:52;;;;;;;88.70;42.83;;;;;;;;;;5045830;28;20441;-72
2021/12/24 10:39:21;;;;;;;82.57;42.30;;;;;;;;;;5062019;28;20036;-72
2021/12/24 10:41:50;;;;;;;79.95;41.85;;;;;;;;;;5046396;28;20024;-73
2021/12/24 10:44:21;;;;;;;104.80;46.75;;;;;;;;;;5078642;28;20016;-72
2021/12/24 10:46:46;;;;;;;;;;;;;;;;;;5045997;28;20025;-73
2021/12/24 10:49:18;;;;;;;84.90;42.90;;;;;;;;;;5062396;28;19908;-73
2021/12/24 10:52:11;;;;;;;80.28;41.33;;;;;;;;;;5061490;28;20013;-72
2021/12/24 10:54:50;;;;;;;88.13;40.20;;;;;;;;;;5044642;28;20016;-72
2021/12/24 10:57:19;;;;;;;70.68;39.58;;;;;;;;;;5044070;28;20154;-72
2021/12/24 10:59:48;;;;;;;84.00;41.83;;;;;;;;;;5044746;28;20040;-72
2021/12/24 11:02:14;;;;;;;84.55;44.58;;;;;;;;;;5061062;28;20020;-73
2021/12/24 11:04:41;;;;;;;96.25;44.72;;;;;;;;;;5062098;28;20430;-71
2021/12/24 11:07:27;;;;;;;95.30;45.40;;;;;;;;;;5044785;28;20456;-72
2021/12/24 11:10:14;;;;;;;96.78;48.60;;;;;;;;;;5048010;28;20249;-74
2021/12/24 11:12:44;;;;;;;97.68;47.72;;;;;;;;;;5061709;28;20410;-72
2021/12/24 11:15:26;;;;;;;101.20;46.90;;;;;;;;;;5060474;28;20033;-72
2021/12/24 11:18:16;;;;;;;98.03;46.05;;;;;;;;;;5060342;28;20040;-72
2021/12/24 11:20:43;;;;;;;96.80;47.22;;;;;;;;;;5060587;28;20037;-73
2021/12/24 11:23:14;;;;;;;86.75;41.53;;;;;;;;;;5061056;28;20046;-72
2021/12/24 11:25:56;;;;;;;73.75;40.97;;;;;;;;;;5044738;28;20035;-73
2021/12/24 11:28:27;;;;;;;86.53;41.80;;;;;;;;;;5044357;28;20036;-73
2021/12/24 11:30:58;;;;;;;83.80;43.35;;;;;;;;;;5044542;28;20074;-72
2021/12/24 11:33:27;;;;;;;95.22;44.40;;;;;;;;;;5045541;28;20115;-73
2021/12/24 11:35:54;;;;;;;94.70;47.67;;;;;;;;;;5044796;28;20094;-72
2021/12/24 11:38:23;;;;;;;92.85;45.78;;;;;;;;;;5060618;28;20052;-72
2021/12/24 11:40:50;;;;;;;86.88;44.22;;;;;;;;;;5078877;28;20064;-73
2021/12/24 11:43:18;;;;;;;99.35;50.08;;;;;;;;;;5078903;28;20099;-72
2021/12/24 11:45:46;;;;;;;89.45;46.38;;;;;;;;;;5044218;28;20056;-72
2021/12/24 11:48:13;;;;;;;87.55;44.65;;;;;;;;;;5061465;28;20029;-72
2021/12/24 11:50:40;;;;;;;90.97;44.95;;;;;;;;;;5060158;28;20017;-73
2021/12/24 11:53:14;;;;;;;89.15;48.15;;;;;;;;;;5077526;28;20012;-72
2021/12/24 11:55:48;;;;;;;101.15;49.00;;;;;;;;;;5059863;28;20074;-72
2021/12/24 11:58:21;;;;;;;102.50;51.22;;;;;;;;;;5057665;28;20082;-74
2021/12/24 12:00:52;;;;;;;102.72;50.40;;;;;;;;;;5058122;28;20056;-72
2021/12/24 12:03:38;;;;;;;117.70;55.38;;;;;;;;;;5059236;28;20075;-74
2021/12/24 12:06:08;;;;;;;112.43;53.42;;;;;;;;;;5071797;28;20051;-72
2021/12/24 12:08:37;;;;;;;103.82;50.05;;;;;;;;;;5043226;28;20042;-73
2021/12/24 12:11:06;;;;;;;100.65;48.30;;;;;;;;;;5060675;28;20013;-72
2021/12/24 12:13:35;;;;;;;105.72;49.65;;;;;;;;;;5078350;28;20020;-72
2021/12/24 12:16:02;;;;;;;114.20;54.03;;;;;;;;;;5078229;28;20471;-73
2021/12/24 12:18:33;;;;;;;109.45;56.13;;;;;;;;;;5044195;28;20012;-73
2021/12/24 12:21:11;;;;;;;114.72;56.83;;;;;;;;;;5060494;28;20056;-73
2021/12/24 12:23:46;;;;;;;110.38;54.40;;;;;;;;;;5043553;28;20483;-72
2021/12/24 12:26:34;;;;;;;101.35;52.58;;;;;;;;;;5060185;28;20032;-72
2021/12/24 12:29:20;;;;;;;89.20;46.80;;;;;;;;;;5044718;28;20123;-72
2021/12/24 12:31:50;;;;;;;78.47;42.20;;;;;;;;;;5077750;28;20093;-72
2021/12/24 12:34:35;;;;;;;100.78;45.25;;;;;;;;;;5043317;28;20052;-72
2021/12/24 12:37:14;;;;;;;89.95;49.15;;;;;;;;;;5059932;28;20016;-72
2021/12/24 12:39:40;;;;;;;101.30;48.85;;;;;;;;;;5060270;28;20392;-72
2021/12/24 12:42:06;;;;;;;94.95;48.58;;;;;;;;;;5043498;28;20017;-73
2021/12/24 12:44:33;;;;;;;103.40;54.13;;;;;;;;;;5059429;28;20024;-73
2021/12/24 12:47:10;;;;;;;119.95;57.28;;;;;;;;;;5077543;28;20031;-72
2021/12/24 12:49:36;;;;;;;114.28;55.35;;;;;;;;;;5043952;28;20085;-74
2021/12/24 12:52:03;;;;;;;117.80;56.55;;;;;;;;;;5060127;28;20024;-73
2021/12/24 12:54:29;;;;;;;129.18;59.90;;;;;;;;;;5043087;28;20121;-73
2021/12/24 12:57:13;;;;;;;125.22;62.75;;;;;;;;;;5077466;28;20071;-73
2021/12/24 12:59:58;;;;;;;121.03;59.38;;;;;;;;;;5077160;28;20086;-73
2021/12/24 13:02:44;;;;;;;141.20;64.50;;;;;;;;;;5042516;28;20024;-72
2021/12/24 13:05:11;;;;;;;139.10;64.95;;;;;;;;;;5058947;28;20016;-73
2021/12/24 13:07:37;;;;;;;139.18;66.93;;;;;;;;;;5043243;28;20024;-72
2021/12/24 13:10:04;;;;;;;158.05;66.65;;;;;;;;;;5059286;28;20111;-72
2021/12/24 13:12:30;;;;;;;147.02;64.97;;;;;;;;;;5059303;28;20016;-73
2021/12/24 13:14:59;;;;;;;144.82;63.13;;;;;;;;;;5059118;28;20322;-73
2021/12/24 13:17:32;;;;;;;128.63;56.60;;;;;;;;;;5077309;28;20017;-73
2021/12/24 13:20:11;;;;;;;120.25;49.50;;;;;;;;;;5042848;28;20060;-72
2021/12/24 13:22:38;;;;;;;113.05;50.22;;;;;;;;;;5060261;28;20426;-72
2021/12/24 13:25:09;;;;;;;132.52;58.90;;;;;;;;;;5042334;28;20044;-72
2021/12/24 13:27:39;;;;;;;125.18;57.50;;;;;;;;;;5063693;28;20023;-73
2021/12/24 13:30:05;;;;;;;;;;;;;;;;;;5047919;28;20478;-73
2021/12/24 13:32:36;;;;;;;109.88;49.17;;;;;;;;;;5064210;28;19993;-72
2021/12/24 13:35:02;;;;;;;122.95;54.50;;;;;;;;;;5063203;28;20350;-73
2021/12/24 13:37:32;;;;;;;100.88;45.33;;;;;;;;;;5081884;28;20023;-74
2021/12/24 13:39:58;;;;;;;101.22;46.92;;;;;;;;;;5063417;28;20039;-73
2021/12/24 13:42:24;;;;;;;94.07;43.30;;;;;;;;;;5081782;28;20028;-72
2021/12/24 13:44:59;;;;;;;80.85;39.88;;;;;;;;;;5064225;28;20016;-73
2021/12/24 13:47:29;;;;;;;96.70;41.63;;;;;;;;;;5062802;28;20047;-73
2021/12/24 13:55:25;;;;;;;94.68;42.40;;;;;;;;;;5081287;28;20335;-72
2021/12/24 13:57:55;;;;;;;83.13;44.78;;;;;;;;;;5063201;28;20435;-73
2021/12/24 14:00:21;;;;;;;;;;;;;;;;;;5046442;28;20426;-73
2021/12/24 14:02:52;;;;;;;81.97;42.17;;;;;;;;;;5046438;28;19958;-73
2021/12/24 14:05:19;;;;;;;;;;;;;;;;;;5063290;28;20012;-72
2021/12/24 14:07:47;;;;;;;70.95;36.40;;;;;;;;;;5063641;28;19908;-73
2021/12/24 14:10:20;;;;;;;104.25;47.40;;;;;;;;;;5080875;28;20489;-73
2021/12/24 14:12:46;;;;;;;81.20;40.03;;;;;;;;;;5062675;28;20027;-72
2021/12/24 14:15:14;;;;;;;87.25;40.45;;;;;;;;;;5062802;28;20021;-72
2021/12/24 14:21:44;;;;;;;66.80;37.67;;;;;;;;;;5020187;28;20079;-73
2021/12/24 14:23:33;;;;;;;77.22;38.70;;;;;;;;;;5062274;28;20024;-73
2021/12/24 14:26:00;;;;;;;89.95;41.10;;;;;;;;;;5062022;28;20039;-72
2021/12/24 14:28:26;;;;;;;89.45;42.25;;;;;;;;;;5063110;28;20020;-73
2021/12/24 14:31:02;;;;;;;94.60;41.85;;;;;;;;;;5079979;28;20321;-73
2021/12/24 14:33:33;;;;;;;92.25;43.28;;;;;;;;;;5046256;28;20433;-72
2021/12/24 14:36:00;;;;;;;88.35;39.83;;;;;;;;;;5080559;28;20020;-72
2021/12/24 14:38:27;;;;;;;93.53;42.50;;;;;;;;;;5062218;28;20024;-73
2021/12/24 14:40:59;;;;;;;84.75;39.67;;;;;;;;;;5062297;28;20445;-73
2021/12/24 14:43:26;;;;;;;70.95;37.95;;;;;;;;;;5080136;28;20012;-73
2021/12/24 14:45:52;;;;;;;73.90;39.83;;;;;;;;;;5045835;28;20125;-72
2021/12/24 14:48:26;;;;;;;78.65;36.47;;;;;;;;;;5061821;28;20027;-72
2021/12/24 14:50:58;;;;;;;83.15;43.25;;;;;;;;;;5062227;28;20050;-73
2021/12/24 14:53:24;;;;;;;83.65;41.13;;;;;;;;;;5045676;28;20119;-73
2021/12/24 14:55:50;;;;;;;76.75;38.45;;;;;;;;;;5045879;28;20063;-72
2021/12/24 14:58:36;;;;;;;77.90;38.78;;;;;;;;;;5062251;28;20059;-73
2021/12/24 15:01:16;;;;;;;84.35;40.88;;;;;;;;;;5080479;28;20059;-72
2021/12/24 15:03:44;;;;;;;71.60;38.63;;;;;;;;;;5045484;28;20048;-72
2021/12/24 15:06:17;;;;;;;71.57;37.92;;;;;;;;;;5045230;28;20048;-74
2021/12/24 15:08:44;;;;;;;65.97;33.90;;;;;;;;;;5061796;28;20016;-73
2021/12/24 15:11:15;;;;;;;67.72;34.80;;;;;;;;;;5061799;28;20480;-72
2021/12/24 15:14:08;;;;;;;70.75;33.00;;;;;;;;;;5045259;28;20131;-72
2021/12/24 15:16:41;;;;;;;65.88;33.22;;;;;;;;;;5075712;28;20083;-72
2021/12/24 15:19:10;;;;;;;67.00;31.80;;;;;;;;;;5061716;28;20028;-73
2021/12/24 15:21:36;;;;;;;80.05;39.42;;;;;;;;;;5079768;28;20025;-72
2021/12/24 15:24:04;;;;;;;120.53;61.78;;;;;;;;;;5045027;28;20085;-72
2021/12/24 15:26:30;;;;;;;124.43;67.30;;;;;;;;;;5080208;28;20119;-72
2021/12/24 15:28:58;;;;;;;67.38;36.10;;;;;;;;;;5079026;28;20058;-72
2021/12/24 15:31:25;;;;;;;60.28;31.50;;;;;;;;;;5079435;28;20055;-72
2021/12/24 15:33:51;;;;;;;62.70;34.30;;;;;;;;;;5061535;28;20017;-72
2021/12/24 15:36:18;;;;;;;70.63;36.42;;;;;;;;;;5079580;28;20028;-72
2021/12/24 15:38:44;;;;;;;57.95;29.27;;;;;;;;;;5061393;28;20020;-72
2021/12/24 15:41:10;;;;;;;67.80;35.08;;;;;;;;;;5061391;28;20028;-72
2021/12/24 15:43:37;;;;;;;73.32;35.50;;;;;;;;;;5060521;28;20023;-72
2021/12/24 15:46:04;;;;;;;80.53;38.70;;;;;;;;;;5060770;28;20415;-72
2021/12/24 15:48:30;;;;;;;69.82;37.30;;;;;;;;;;5060011;28;20456;-72
2021/12/24 15:50:56;;;;;;;77.45;41.25;;;;;;;;;;5061834;28;20418;-73
2021/12/24 15:53:23;;;;;;;90.43;43.88;;;;;;;;;;5079010;28;20074;-72
2021/12/24 15:55:49;;;;;;;97.25;41.70;;;;;;;;;;5077965;28;20071;-72
2021/12/24 15:58:16;;;;;;;86.20;41.10;;;;;;;;;;5044701;28;20334;-72
2021/12/24 16:00:44;;;;;;;77.45;39.90;;;;;;;;;;5077760;28;20140;-72
2021/12/24 16:03:12;;;;;;;86.70;42.20;;;;;;;;;;5078526;28;20017;-72
2021/12/24 16:05:42;;;;;;;81.22;40.20;;;;;;;;;;5044161;28;20027;-72
2021/12/24 16:08:09;;;;;;;91.72;41.97;;;;;;;;;;5078830;28;20024;-72
2021/12/24 16:10:35;;;;;;;88.03;41.95;;;;;;;;;;5060615;28;20032;-72
2021/12/24 16:13:01;;;;;;;87.55;43.42;;;;;;;;;;5060824;28;20079;-72
2021/12/24 16:15:28;;;;;;;81.88;42.78;;;;;;;;;;5059966;28;20013;-72
2021/12/24 16:17:54;;;;;;;85.25;43.30;;;;;;;;;;5077918;28;20020;-72
2021/12/24 16:20:21;;;;;;;87.07;44.40;;;;;;;;;;5060890;28;20381;-72
2021/12/24 16:22:47;;;;;;;92.93;48.38;;;;;;;;;;5044166;28;20017;-72
2021/12/24 16:25:13;;;;;;;89.55;46.33;;;;;;;;;;5078094;28;20036;-72
2021/12/24 16:27:41;;;;;;;88.78;44.60;;;;;;;;;;5077330;28;20017;-72
2021/12/24 16:30:09;;;;;;;88.65;41.72;;;;;;;;;;5077809;28;20024;-72